Ferndale, WA

11:52 AM PDT on April 26, 2017 (GMT -0700)
The Old Jeffcott Place | | Change Station

Elev 106 ft 48.86 °N, 122.59 °W | Updated 14 seconds ago

Mostly Cloudy
Mostly Cloudy
54.8 °F
Feels Like 54.8 °F
N
12.9
Wind Variable Wind from WSW
Gusts 22.0 mph

Today
High -- | Low -- °F
--% Chance of Precip.
Yesterday
High -- | Low -- °F
Precip. -- in
Pressure 29.80 in
Visibility 10.0 miles
Clouds Overcast 8500 ft
Dew Point 40 °F
Humidity 57%
Rainfall 0.09 in
Snow Depth Not available.
5:57 AM 8:19 PM
New Moon, 0% visible
METAR KBLI 261753Z VRB06KT 10SM OVC085 13/04 A2977 RMK AO2 SLP089 60000 T01280044 10128 20100 51012
Pressure 29.80 in
Visibility 10.0 miles
Clouds Overcast 8500 ft
Dew Point 40 °F
Humidity 57%
Rainfall 0.09 in
Snow Depth Not available.
5:57 AM 8:19 PM
New Moon, 0% visible
METAR KBLI 261753Z VRB06KT 10SM OVC085 13/04 A2977 RMK AO2 SLP089 60000 T01280044 10128 20100 51012

Get Severe Weather Alerts

Thanks for signing up!

Be on the lookout for a verification email in your inbox.

You'll start receiving the daily forecast at 8 AM.

×

10-Day Weather Forecast

Almanac

Astronomy

Apr. 26, 2017 Rise Set
Actual Time
Civil Twilight
Nautical Twilight
Astronomical Twilight
Moon
Length of Visible Light
Length of Day
Tomorrow will be .
, % of the Moon is Illuminated

Today's Extremes

State Highs State Lows

Community

WunderPhotos

WunderBlog® & News

Nearby

Air Quality

  Air Quality AQ Index Pollutant
Not available.

Snow Depth

Station Depth Elevation

Earthquake Activity

City Distance Mag. Time & Date
Minimum magnitude displayed is 2.5.

Coastal Water Temperatures

Place Temperature

Stations

Nearby Weather Stations

Station Location Temp. Windchill Dew Point Humidity Wind Precip. Elev Updated Type
                   

Watches & Warnings

There are currently no watches in effect.